sensor_id;sensor_type;location;lat;lon;timestamp;P1;durP1;ratioP1;P2;durP2;ratioP2
71773;SDS011;59607;52.130;5.430;2023-02-28T00:02:06;3.20;;;1.30;;
71773;SDS011;59607;52.130;5.430;2023-02-28T00:04:35;3.08;;;1.50;;
71773;SDS011;59607;52.130;5.430;2023-02-28T00:07:02;2.20;;;1.10;;
71773;SDS011;59607;52.130;5.430;2023-02-28T00:09:30;3.28;;;1.30;;
71773;SDS011;59607;52.130;5.430;2023-02-28T00:12:01;2.15;;;1.27;;
71773;SDS011;59607;52.130;5.430;2023-02-28T00:14:39;2.57;;;1.20;;
71773;SDS011;59607;52.130;5.430;2023-02-28T00:17:05;3.53;;;1.73;;
71773;SDS011;59607;52.130;5.430;2023-02-28T00:19:32;1.95;;;1.50;;
71773;SDS011;59607;52.130;5.430;2023-02-28T00:22:04;2.25;;;1.50;;
71773;SDS011;59607;52.130;5.430;2023-02-28T00:24:30;4.13;;;1.42;;
71773;SDS011;59607;52.130;5.430;2023-02-28T00:27:00;1.80;;;1.10;;
71773;SDS011;59607;52.130;5.430;2023-02-28T00:29:34;2.92;;;1.10;;
71773;SDS011;59607;52.130;5.430;2023-02-28T00:32:04;1.70;;;1.10;;
71773;SDS011;59607;52.130;5.430;2023-02-28T00:34:33;2.70;;;1.02;;
71773;SDS011;59607;52.130;5.430;2023-02-28T00:37:10;3.78;;;1.00;;
71773;SDS011;59607;52.130;5.430;2023-02-28T00:39:40;4.37;;;1.00;;
71773;SDS011;59607;52.130;5.430;2023-02-28T00:42:14;4.50;;;0.90;;
71773;SDS011;59607;52.130;5.430;2023-02-28T00:44:41;3.20;;;1.13;;
71773;SDS011;59607;52.130;5.430;2023-02-28T00:47:17;3.30;;;1.15;;
71773;SDS011;59607;52.130;5.430;2023-02-28T00:49:44;2.63;;;0.80;;
71773;SDS011;59607;52.130;5.430;2023-02-28T00:52:10;1.70;;;1.10;;
71773;SDS011;59607;52.130;5.430;2023-02-28T00:54:40;4.85;;;1.10;;
71773;SDS011;59607;52.130;5.430;2023-02-28T00:57:07;2.58;;;1.30;;
71773;SDS011;59607;52.130;5.430;2023-02-28T00:59:33;5.68;;;1.20;;
71773;SDS011;59607;52.130;5.430;2023-02-28T01:02:04;2.30;;;1.00;;
71773;SDS011;59607;52.130;5.430;2023-02-28T01:04:31;3.17;;;1.20;;
71773;SDS011;59607;52.130;5.430;2023-02-28T01:07:03;2.03;;;1.30;;
71773;SDS011;59607;52.130;5.430;2023-02-28T01:09:32;5.03;;;0.93;;
71773;SDS011;59607;52.130;5.430;2023-02-28T01:11:59;5.32;;;1.30;;
71773;SDS011;59607;52.130;5.430;2023-02-28T01:14:28;2.40;;;1.17;;
71773;SDS011;59607;52.130;5.430;2023-02-28T01:16:57;2.80;;;1.10;;
71773;SDS011;59607;52.130;5.430;2023-02-28T01:19:23;1.52;;;0.70;;
71773;SDS011;59607;52.130;5.430;2023-02-28T01:21:50;1.60;;;0.88;;
71773;SDS011;59607;52.130;5.430;2023-02-28T01:24:17;3.15;;;0.98;;
71773;SDS011;59607;52.130;5.430;2023-02-28T01:26:43;3.25;;;1.10;;
71773;SDS011;59607;52.130;5.430;2023-02-28T01:29:10;2.57;;;1.00;;
71773;SDS011;59607;52.130;5.430;2023-02-28T01:31:43;2.63;;;0.90;;
71773;SDS011;59607;52.130;5.430;2023-02-28T01:34:09;2.55;;;0.88;;
71773;SDS011;59607;52.130;5.430;2023-02-28T01:36:36;3.50;;;1.05;;
71773;SDS011;59607;52.130;5.430;2023-02-28T01:39:07;3.53;;;1.08;;
71773;SDS011;59607;52.130;5.430;2023-02-28T01:41:35;3.00;;;1.10;;
71773;SDS011;59607;52.130;5.430;2023-02-28T01:44:06;2.38;;;0.75;;
71773;SDS011;59607;52.130;5.430;2023-02-28T01:46:56;3.50;;;1.08;;
71773;SDS011;59607;52.130;5.430;2023-02-28T01:49:23;2.30;;;1.25;;
71773;SDS011;59607;52.130;5.430;2023-02-28T01:51:53;1.65;;;0.70;;
71773;SDS011;59607;52.130;5.430;2023-02-28T01:54:22;4.23;;;0.90;;
71773;SDS011;59607;52.130;5.430;2023-02-28T01:56:59;2.58;;;0.95;;
71773;SDS011;59607;52.130;5.430;2023-02-28T01:59:45;2.47;;;0.80;;
71773;SDS011;59607;52.130;5.430;2023-02-28T02:02:24;1.50;;;0.93;;
71773;SDS011;59607;52.130;5.430;2023-02-28T02:04:56;2.88;;;0.80;;
71773;SDS011;59607;52.130;5.430;2023-02-28T02:07:37;2.10;;;1.00;;
71773;SDS011;59607;52.130;5.430;2023-02-28T02:10:11;2.78;;;1.23;;
71773;SDS011;59607;52.130;5.430;2023-02-28T02:22:21;2.70;;;1.93;;
71773;SDS011;59607;52.130;5.430;2023-02-28T02:28:15;2.28;;;1.13;;
71773;SDS011;59607;52.130;5.430;2023-02-28T02:39:53;3.95;;;0.95;;
71773;SDS011;59607;52.130;5.430;2023-02-28T02:43:10;1.73;;;1.13;;
71773;SDS011;59607;52.130;5.430;2023-02-28T02:48:21;1.88;;;0.90;;
71773;SDS011;59607;52.130;5.430;2023-02-28T02:51:00;1.93;;;1.03;;
71773;SDS011;59607;52.130;5.430;2023-02-28T02:53:40;2.90;;;1.05;;
71773;SDS011;59607;52.130;5.430;2023-02-28T02:56:14;2.15;;;1.00;;
71773;SDS011;59607;52.130;5.430;2023-02-28T02:58:47;2.28;;;0.90;;
71773;SDS011;59607;52.130;5.430;2023-02-28T03:01:20;3.75;;;1.30;;
71773;SDS011;59607;52.130;5.430;2023-02-28T03:04:06;2.37;;;1.03;;
71773;SDS011;59607;52.130;5.430;2023-02-28T03:06:39;2.28;;;1.10;;
71773;SDS011;59607;52.130;5.430;2023-02-28T03:09:08;3.70;;;1.45;;
71773;SDS011;59607;52.130;5.430;2023-02-28T03:11:40;3.58;;;1.30;;
71773;SDS011;59607;52.130;5.430;2023-02-28T03:19:51;4.57;;;1.25;;
71773;SDS011;59607;52.130;5.430;2023-02-28T03:27:53;4.13;;;1.48;;
71773;SDS011;59607;52.130;5.430;2023-02-28T03:31:00;5.03;;;1.50;;
71773;SDS011;59607;52.130;5.430;2023-02-28T03:33:51;3.10;;;1.67;;
71773;SDS011;59607;52.130;5.430;2023-02-28T03:36:29;6.38;;;1.80;;
71773;SDS011;59607;52.130;5.430;2023-02-28T03:39:27;4.05;;;1.80;;
71773;SDS011;59607;52.130;5.430;2023-02-28T03:42:07;7.70;;;1.52;;
71773;SDS011;59607;52.130;5.430;2023-02-28T03:44:49;4.13;;;1.47;;
71773;SDS011;59607;52.130;5.430;2023-02-28T03:52:25;3.88;;;1.83;;
71773;SDS011;59607;52.130;5.430;2023-02-28T03:55:03;3.78;;;1.17;;
71773;SDS011;59607;52.130;5.430;2023-02-28T03:57:42;4.17;;;1.40;;
71773;SDS011;59607;52.130;5.430;2023-02-28T04:00:21;2.95;;;1.40;;
71773;SDS011;59607;52.130;5.430;2023-02-28T04:03:09;2.28;;;1.08;;
71773;SDS011;59607;52.130;5.430;2023-02-28T04:05:44;4.90;;;1.48;;
71773;SDS011;59607;52.130;5.430;2023-02-28T04:08:26;1.92;;;1.17;;
71773;SDS011;59607;52.130;5.430;2023-02-28T04:11:00;2.60;;;1.23;;
71773;SDS011;59607;52.130;5.430;2023-02-28T04:13:54;3.42;;;1.10;;
71773;SDS011;59607;52.130;5.430;2023-02-28T04:16:21;1.58;;;0.95;;
71773;SDS011;59607;52.130;5.430;2023-02-28T04:19:01;8.10;;;1.13;;
71773;SDS011;59607;52.130;5.430;2023-02-28T04:21:43;1.70;;;1.10;;
71773;SDS011;59607;52.130;5.430;2023-02-28T04:24:13;1.83;;;0.90;;
71773;SDS011;59607;52.130;5.430;2023-02-28T04:26:48;2.42;;;0.80;;
71773;SDS011;59607;52.130;5.430;2023-02-28T04:29:38;1.73;;;0.60;;
71773;SDS011;59607;52.130;5.430;2023-02-28T04:32:12;2.15;;;0.70;;
71773;SDS011;59607;52.130;5.430;2023-02-28T04:34:41;1.33;;;0.75;;
71773;SDS011;59607;52.130;5.430;2023-02-28T04:37:10;1.20;;;0.57;;
71773;SDS011;59607;52.130;5.430;2023-02-28T04:39:39;2.50;;;0.90;;
71773;SDS011;59607;52.130;5.430;2023-02-28T04:42:09;2.88;;;1.00;;
71773;SDS011;59607;52.130;5.430;2023-02-28T04:44:36;2.25;;;0.95;;
71773;SDS011;59607;52.130;5.430;2023-02-28T04:47:03;2.70;;;0.90;;
71773;SDS011;59607;52.130;5.430;2023-02-28T04:49:34;2.83;;;1.07;;
71773;SDS011;59607;52.130;5.430;2023-02-28T04:52:01;3.13;;;0.85;;
71773;SDS011;59607;52.130;5.430;2023-02-28T04:54:28;3.72;;;1.08;;
71773;SDS011;59607;52.130;5.430;2023-02-28T04:56:59;1.13;;;0.70;;
71773;SDS011;59607;52.130;5.430;2023-02-28T04:59:30;4.13;;;1.20;;
71773;SDS011;59607;52.130;5.430;2023-02-28T05:02:00;1.43;;;0.93;;
71773;SDS011;59607;52.130;5.430;2023-02-28T05:04:33;2.80;;;0.68;;
71773;SDS011;59607;52.130;5.430;2023-02-28T05:07:00;3.95;;;0.88;;
71773;SDS011;59607;52.130;5.430;2023-02-28T05:09:30;1.20;;;0.70;;
71773;SDS011;59607;52.130;5.430;2023-02-28T05:11:58;1.00;;;0.80;;
71773;SDS011;59607;52.130;5.430;2023-02-28T05:14:28;1.60;;;0.70;;
71773;SDS011;59607;52.130;5.430;2023-02-28T05:16:54;2.00;;;0.80;;
71773;SDS011;59607;52.130;5.430;2023-02-28T05:19:27;1.23;;;0.73;;
71773;SDS011;59607;52.130;5.430;2023-02-28T05:21:55;2.35;;;0.82;;
71773;SDS011;59607;52.130;5.430;2023-02-28T05:24:22;1.25;;;0.85;;
71773;SDS011;59607;52.130;5.430;2023-02-28T05:26:51;1.73;;;0.77;;
71773;SDS011;59607;52.130;5.430;2023-02-28T05:29:21;1.35;;;0.75;;
71773;SDS011;59607;52.130;5.430;2023-02-28T05:31:48;3.15;;;0.80;;
71773;SDS011;59607;52.130;5.430;2023-02-28T05:34:15;1.40;;;0.85;;
71773;SDS011;59607;52.130;5.430;2023-02-28T05:36:45;2.25;;;0.80;;
71773;SDS011;59607;52.130;5.430;2023-02-28T05:39:12;2.50;;;1.00;;
71773;SDS011;59607;52.130;5.430;2023-02-28T05:41:44;1.95;;;1.00;;
71773;SDS011;59607;52.130;5.430;2023-02-28T05:44:10;2.40;;;1.20;;
71773;SDS011;59607;52.130;5.430;2023-02-28T05:46:38;1.65;;;0.80;;
71773;SDS011;59607;52.130;5.430;2023-02-28T05:49:07;2.55;;;0.82;;
71773;SDS011;59607;52.130;5.430;2023-02-28T05:51:34;1.50;;;1.07;;
71773;SDS011;59607;52.130;5.430;2023-02-28T05:54:10;1.70;;;0.90;;
71773;SDS011;59607;52.130;5.430;2023-02-28T05:56:40;2.75;;;0.80;;
71773;SDS011;59607;52.130;5.430;2023-02-28T05:59:14;1.27;;;0.70;;
71773;SDS011;59607;52.130;5.430;2023-02-28T06:01:44;1.50;;;0.88;;
71773;SDS011;59607;52.130;5.430;2023-02-28T06:04:27;2.10;;;0.90;;
71773;SDS011;59607;52.130;5.430;2023-02-28T06:06:57;1.33;;;0.82;;
71773;SDS011;59607;52.130;5.430;2023-02-28T06:09:24;2.35;;;0.90;;
71773;SDS011;59607;52.130;5.430;2023-02-28T06:11:52;2.20;;;0.90;;
71773;SDS011;59607;52.130;5.430;2023-02-28T06:14:23;1.70;;;1.00;;
71773;SDS011;59607;52.130;5.430;2023-02-28T06:16:49;1.10;;;0.70;;
71773;SDS011;59607;52.130;5.430;2023-02-28T06:19:21;3.45;;;1.00;;
71773;SDS011;59607;52.130;5.430;2023-02-28T06:21:55;3.33;;;0.63;;
71773;SDS011;59607;52.130;5.430;2023-02-28T06:24:28;2.13;;;0.82;;
71773;SDS011;59607;52.130;5.430;2023-02-28T06:26:54;2.58;;;0.90;;
71773;SDS011;59607;52.130;5.430;2023-02-28T06:29:21;2.00;;;1.40;;
71773;SDS011;59607;52.130;5.430;2023-02-28T06:31:50;1.80;;;1.10;;
71773;SDS011;59607;52.130;5.430;2023-02-28T06:34:17;2.42;;;1.17;;
71773;SDS011;59607;52.130;5.430;2023-02-28T06:36:43;1.33;;;0.80;;
71773;SDS011;59607;52.130;5.430;2023-02-28T06:39:10;1.90;;;1.15;;
71773;SDS011;59607;52.130;5.430;2023-02-28T06:41:37;3.80;;;1.30;;
71773;SDS011;59607;52.130;5.430;2023-02-28T06:44:22;2.40;;;1.40;;
71773;SDS011;59607;52.130;5.430;2023-02-28T06:46:50;2.22;;;1.20;;
71773;SDS011;59607;52.130;5.430;2023-02-28T06:49:30;1.90;;;1.33;;
71773;SDS011;59607;52.130;5.430;2023-02-28T06:52:03;1.85;;;1.05;;
71773;SDS011;59607;52.130;5.430;2023-02-28T06:54:30;2.83;;;1.40;;
71773;SDS011;59607;52.130;5.430;2023-02-28T06:57:00;2.00;;;1.30;;
71773;SDS011;59607;52.130;5.430;2023-02-28T06:59:34;1.52;;;1.30;;
71773;SDS011;59607;52.130;5.430;2023-02-28T07:02:03;3.50;;;1.48;;
71773;SDS011;59607;52.130;5.430;2023-02-28T07:04:34;2.20;;;1.55;;
71773;SDS011;59607;52.130;5.430;2023-02-28T07:07:06;3.97;;;1.53;;
71773;SDS011;59607;52.130;5.430;2023-02-28T07:09:35;3.05;;;0.88;;
71773;SDS011;59607;52.130;5.430;2023-02-28T07:12:02;1.38;;;1.00;;
71773;SDS011;59607;52.130;5.430;2023-02-28T07:14:47;1.58;;;0.90;;
71773;SDS011;59607;52.130;5.430;2023-02-28T07:17:17;2.72;;;1.20;;
71773;SDS011;59607;52.130;5.430;2023-02-28T07:19:43;3.33;;;1.10;;
71773;SDS011;59607;52.130;5.430;2023-02-28T07:22:13;2.03;;;1.20;;
71773;SDS011;59607;52.130;5.430;2023-02-28T07:24:45;2.08;;;1.40;;
71773;SDS011;59607;52.130;5.430;2023-02-28T07:27:11;3.05;;;1.02;;
71773;SDS011;59607;52.130;5.430;2023-02-28T07:29:43;1.50;;;1.15;;
71773;SDS011;59607;52.130;5.430;2023-02-28T07:32:10;3.27;;;1.07;;
71773;SDS011;59607;52.130;5.430;2023-02-28T07:34:47;2.90;;;1.30;;
71773;SDS011;59607;52.130;5.430;2023-02-28T07:37:14;1.70;;;1.00;;
71773;SDS011;59607;52.130;5.430;2023-02-28T07:39:43;1.52;;;0.80;;
71773;SDS011;59607;52.130;5.430;2023-02-28T07:42:09;2.75;;;1.15;;
71773;SDS011;59607;52.130;5.430;2023-02-28T07:44:47;7.30;;;1.50;;
71773;SDS011;59607;52.130;5.430;2023-02-28T07:47:17;3.00;;;1.52;;
71773;SDS011;59607;52.130;5.430;2023-02-28T07:49:44;4.70;;;1.83;;
71773;SDS011;59607;52.130;5.430;2023-02-28T07:52:15;3.13;;;1.88;;
71773;SDS011;59607;52.130;5.430;2023-02-28T07:54:41;3.47;;;2.15;;
71773;SDS011;59607;52.130;5.430;2023-02-28T07:57:08;2.53;;;1.80;;
71773;SDS011;59607;52.130;5.430;2023-02-28T07:59:44;3.88;;;1.60;;
71773;SDS011;59607;52.130;5.430;2023-02-28T08:02:14;1.83;;;1.42;;
71773;SDS011;59607;52.130;5.430;2023-02-28T08:04:42;5.90;;;1.80;;
71773;SDS011;59607;52.130;5.430;2023-02-28T08:07:09;2.25;;;1.55;;
71773;SDS011;59607;52.130;5.430;2023-02-28T08:09:39;1.90;;;1.23;;
71773;SDS011;59607;52.130;5.430;2023-02-28T08:12:07;2.03;;;1.45;;
71773;SDS011;59607;52.130;5.430;2023-02-28T08:14:34;2.55;;;1.60;;
71773;SDS011;59607;52.130;5.430;2023-02-28T08:17:10;1.50;;;1.08;;
71773;SDS011;59607;52.130;5.430;2023-02-28T08:19:36;1.90;;;1.23;;
71773;SDS011;59607;52.130;5.430;2023-02-28T08:22:12;2.37;;;1.30;;
71773;SDS011;59607;52.130;5.430;2023-02-28T08:24:40;2.60;;;1.20;;
71773;SDS011;59607;52.130;5.430;2023-02-28T08:27:10;2.28;;;1.50;;
71773;SDS011;59607;52.130;5.430;2023-02-28T08:29:44;1.40;;;1.10;;
71773;SDS011;59607;52.130;5.430;2023-02-28T08:32:10;3.72;;;1.73;;
71773;SDS011;59607;52.130;5.430;2023-02-28T08:34:54;1.67;;;1.10;;
71773;SDS011;59607;52.130;5.430;2023-02-28T08:37:21;3.03;;;1.30;;
71773;SDS011;59607;52.130;5.430;2023-02-28T08:39:47;5.05;;;1.20;;
71773;SDS011;59607;52.130;5.430;2023-02-28T08:42:14;1.75;;;1.10;;
71773;SDS011;59607;52.130;5.430;2023-02-28T08:44:40;3.35;;;1.10;;
71773;SDS011;59607;52.130;5.430;2023-02-28T08:47:19;1.37;;;1.00;;
71773;SDS011;59607;52.130;5.430;2023-02-28T08:49:49;1.83;;;0.95;;
71773;SDS011;59607;52.130;5.430;2023-02-28T08:52:16;2.03;;;1.20;;
71773;SDS011;59607;52.130;5.430;2023-02-28T08:54:52;2.38;;;0.93;;
71773;SDS011;59607;52.130;5.430;2023-02-28T08:57:19;1.85;;;0.90;;
71773;SDS011;59607;52.130;5.430;2023-02-28T08:59:45;2.10;;;0.80;;
71773;SDS011;59607;52.130;5.430;2023-02-28T09:02:15;1.92;;;0.90;;
71773;SDS011;59607;52.130;5.430;2023-02-28T09:04:41;1.60;;;1.17;;
71773;SDS011;59607;52.130;5.430;2023-02-28T09:07:11;1.75;;;0.77;;
71773;SDS011;59607;52.130;5.430;2023-02-28T09:09:45;1.20;;;0.60;;
71773;SDS011;59607;52.130;5.430;2023-02-28T09:12:25;2.87;;;0.77;;
71773;SDS011;59607;52.130;5.430;2023-02-28T09:15:02;1.45;;;0.70;;
71773;SDS011;59607;52.130;5.430;2023-02-28T09:17:29;1.10;;;0.50;;
71773;SDS011;59607;52.130;5.430;2023-02-28T09:19:56;1.05;;;0.40;;
71773;SDS011;59607;52.130;5.430;2023-02-28T09:22:37;1.10;;;0.60;;
71773;SDS011;59607;52.130;5.430;2023-02-28T09:25:08;1.00;;;0.47;;
71773;SDS011;59607;52.130;5.430;2023-02-28T09:27:34;0.90;;;0.50;;
71773;SDS011;59607;52.130;5.430;2023-02-28T09:30:08;0.75;;;0.30;;
71773;SDS011;59607;52.130;5.430;2023-02-28T09:32:38;1.80;;;0.50;;
71773;SDS011;59607;52.130;5.430;2023-02-28T09:35:06;0.80;;;0.50;;
71773;SDS011;59607;52.130;5.430;2023-02-28T09:37:40;0.80;;;0.50;;
71773;SDS011;59607;52.130;5.430;2023-02-28T09:40:06;1.60;;;0.40;;
71773;SDS011;59607;52.130;5.430;2023-02-28T09:42:45;1.05;;;0.40;;
71773;SDS011;59607;52.130;5.430;2023-02-28T09:45:22;0.80;;;0.30;;
71773;SDS011;59607;52.130;5.430;2023-02-28T09:48:03;1.58;;;0.50;;
71773;SDS011;59607;52.130;5.430;2023-02-28T09:50:48;3.50;;;0.40;;
71773;SDS011;59607;52.130;5.430;2023-02-28T09:53:27;0.60;;;0.30;;
71773;SDS011;59607;52.130;5.430;2023-02-28T09:56:10;1.65;;;0.47;;
71773;SDS011;59607;52.130;5.430;2023-02-28T10:01:42;2.83;;;0.40;;
71773;SDS011;59607;52.130;5.430;2023-02-28T10:10:40;0.60;;;0.30;;
71773;SDS011;59607;52.130;5.430;2023-02-28T10:13:17;2.35;;;0.55;;
71773;SDS011;59607;52.130;5.430;2023-02-28T10:16:01;0.90;;;0.47;;
71773;SDS011;59607;52.130;5.430;2023-02-28T10:18:40;1.13;;;0.40;;
71773;SDS011;59607;52.130;5.430;2023-02-28T10:21:28;0.80;;;0.40;;
71773;SDS011;59607;52.130;5.430;2023-02-28T10:24:04;0.73;;;0.38;;
71773;SDS011;59607;52.130;5.430;2023-02-28T10:27:21;0.80;;;0.30;;
71773;SDS011;59607;52.130;5.430;2023-02-28T10:29:53;0.82;;;0.30;;
71773;SDS011;59607;52.130;5.430;2023-02-28T10:32:29;1.57;;;0.47;;
71773;SDS011;59607;52.130;5.430;2023-02-28T10:37:41;0.90;;;0.40;;
71773;SDS011;59607;52.130;5.430;2023-02-28T10:45:38;1.33;;;0.40;;
71773;SDS011;59607;52.130;5.430;2023-02-28T10:51:04;1.52;;;0.40;;
71773;SDS011;59607;52.130;5.430;2023-02-28T10:53:40;1.08;;;0.30;;
71773;SDS011;59607;52.130;5.430;2023-02-28T10:56:28;1.20;;;0.40;;
71773;SDS011;59607;52.130;5.430;2023-02-28T10:59:28;2.40;;;0.30;;
71773;SDS011;59607;52.130;5.430;2023-02-28T11:02:07;1.80;;;0.40;;
71773;SDS011;59607;52.130;5.430;2023-02-28T11:08:05;1.80;;;0.32;;
71773;SDS011;59607;52.130;5.430;2023-02-28T11:10:38;1.33;;;0.40;;
71773;SDS011;59607;52.130;5.430;2023-02-28T11:13:17;0.93;;;0.30;;
71773;SDS011;59607;52.130;5.430;2023-02-28T11:15:59;1.02;;;0.47;;
71773;SDS011;59607;52.130;5.430;2023-02-28T11:18:42;0.93;;;0.40;;
71773;SDS011;59607;52.130;5.430;2023-02-28T11:23:46;1.10;;;0.60;;
71773;SDS011;59607;52.130;5.430;2023-02-28T11:26:35;1.10;;;0.50;;
71773;SDS011;59607;52.130;5.430;2023-02-28T11:29:19;0.63;;;0.40;;
71773;SDS011;59607;52.130;5.430;2023-02-28T11:35:10;0.98;;;0.40;;
71773;SDS011;59607;52.130;5.430;2023-02-28T11:38:04;1.25;;;0.50;;
71773;SDS011;59607;52.130;5.430;2023-02-28T11:40:50;0.90;;;0.50;;
71773;SDS011;59607;52.130;5.430;2023-02-28T11:43:37;1.35;;;0.47;;
71773;SDS011;59607;52.130;5.430;2023-02-28T11:46:27;0.80;;;0.40;;
71773;SDS011;59607;52.130;5.430;2023-02-28T11:49:26;3.30;;;0.38;;
71773;SDS011;59607;52.130;5.430;2023-02-28T11:55:11;2.13;;;0.40;;
71773;SDS011;59607;52.130;5.430;2023-02-28T12:01:09;0.75;;;0.35;;
71773;SDS011;59607;52.130;5.430;2023-02-28T12:06:18;0.60;;;0.40;;
71773;SDS011;59607;52.130;5.430;2023-02-28T12:11:26;0.85;;;0.40;;
71773;SDS011;59607;52.130;5.430;2023-02-28T12:20:24;0.73;;;0.30;;
71773;SDS011;59607;52.130;5.430;2023-02-28T12:23:23;1.00;;;0.40;;
71773;SDS011;59607;52.130;5.430;2023-02-28T12:26:35;0.70;;;0.30;;
71773;SDS011;59607;52.130;5.430;2023-02-28T12:31:40;1.23;;;0.50;;
71773;SDS011;59607;52.130;5.430;2023-02-28T12:34:20;0.88;;;0.40;;
71773;SDS011;59607;52.130;5.430;2023-02-28T12:37:19;3.90;;;0.43;;
71773;SDS011;59607;52.130;5.430;2023-02-28T12:39:54;1.58;;;0.50;;
71773;SDS011;59607;52.130;5.430;2023-02-28T12:42:41;0.90;;;0.43;;
71773;SDS011;59607;52.130;5.430;2023-02-28T12:45:22;1.17;;;0.50;;
71773;SDS011;59607;52.130;5.430;2023-02-28T12:47:57;0.70;;;0.50;;
71773;SDS011;59607;52.130;5.430;2023-02-28T12:50:30;2.43;;;0.50;;
71773;SDS011;59607;52.130;5.430;2023-02-28T12:58:45;1.48;;;0.40;;
71773;SDS011;59607;52.130;5.430;2023-02-28T13:01:30;1.35;;;0.50;;
71773;SDS011;59607;52.130;5.430;2023-02-28T13:04:18;0.70;;;0.30;;
71773;SDS011;59607;52.130;5.430;2023-02-28T13:10:02;0.93;;;0.40;;
71773;SDS011;59607;52.130;5.430;2023-02-28T13:12:37;2.35;;;0.50;;
71773;SDS011;59607;52.130;5.430;2023-02-28T13:15:27;1.00;;;0.50;;
71773;SDS011;59607;52.130;5.430;2023-02-28T13:21:03;1.50;;;0.50;;
71773;SDS011;59607;52.130;5.430;2023-02-28T13:26:13;0.88;;;0.50;;
71773;SDS011;59607;52.130;5.430;2023-02-28T13:31:21;0.73;;;0.30;;
71773;SDS011;59607;52.130;5.430;2023-02-28T13:36:28;1.67;;;0.65;;
71773;SDS011;59607;52.130;5.430;2023-02-28T13:39:02;1.10;;;0.60;;
71773;SDS011;59607;52.130;5.430;2023-02-28T13:45:19;1.23;;;0.40;;
71773;SDS011;59607;52.130;5.430;2023-02-28T13:47:59;0.82;;;0.57;;
71773;SDS011;59607;52.130;5.430;2023-02-28T13:50:39;1.30;;;0.63;;
71773;SDS011;59607;52.130;5.430;2023-02-28T13:53:33;1.52;;;0.52;;
71773;SDS011;59607;52.130;5.430;2023-02-28T13:56:33;1.02;;;0.50;;
71773;SDS011;59607;52.130;5.430;2023-02-28T14:04:58;1.00;;;0.65;;
71773;SDS011;59607;52.130;5.430;2023-02-28T14:07:39;1.75;;;0.50;;
71773;SDS011;59607;52.130;5.430;2023-02-28T14:10:51;1.10;;;0.60;;
71773;SDS011;59607;52.130;5.430;2023-02-28T14:16:20;0.90;;;0.43;;
71773;SDS011;59607;52.130;5.430;2023-02-28T14:19:00;1.15;;;0.50;;
71773;SDS011;59607;52.130;5.430;2023-02-28T14:21:35;1.63;;;0.60;;
71773;SDS011;59607;52.130;5.430;2023-02-28T14:24:22;1.35;;;0.50;;
71773;SDS011;59607;52.130;5.430;2023-02-28T14:27:29;1.23;;;0.57;;
71773;SDS011;59607;52.130;5.430;2023-02-28T14:33:19;2.08;;;0.80;;
71773;SDS011;59607;52.130;5.430;2023-02-28T14:36:00;1.27;;;0.70;;
71773;SDS011;59607;52.130;5.430;2023-02-28T14:38:56;2.00;;;0.80;;
71773;SDS011;59607;52.130;5.430;2023-02-28T14:43:55;1.50;;;0.60;;
71773;SDS011;59607;52.130;5.430;2023-02-28T14:46:28;1.15;;;0.60;;
71773;SDS011;59607;52.130;5.430;2023-02-28T14:52:42;1.38;;;0.68;;
71773;SDS011;59607;52.130;5.430;2023-02-28T14:57:42;1.08;;;0.43;;
71773;SDS011;59607;52.130;5.430;2023-02-28T15:00:26;2.17;;;0.68;;
71773;SDS011;59607;52.130;5.430;2023-02-28T15:03:00;1.10;;;0.52;;
71773;SDS011;59607;52.130;5.430;2023-02-28T15:05:53;1.25;;;0.68;;
71773;SDS011;59607;52.130;5.430;2023-02-28T15:08:21;0.80;;;0.47;;
71773;SDS011;59607;52.130;5.430;2023-02-28T15:13:34;1.10;;;0.55;;
71773;SDS011;59607;52.130;5.430;2023-02-28T15:19:11;1.13;;;0.60;;
71773;SDS011;59607;52.130;5.430;2023-02-28T15:21:47;2.90;;;0.60;;
71773;SDS011;59607;52.130;5.430;2023-02-28T15:24:19;0.93;;;0.43;;
71773;SDS011;59607;52.130;5.430;2023-02-28T15:26:58;1.00;;;0.50;;
71773;SDS011;59607;52.130;5.430;2023-02-28T15:29:37;1.90;;;0.40;;
71773;SDS011;59607;52.130;5.430;2023-02-28T15:32:33;5.18;;;0.88;;
71773;SDS011;59607;52.130;5.430;2023-02-28T15:37:55;2.15;;;0.65;;
71773;SDS011;59607;52.130;5.430;2023-02-28T15:42:58;2.67;;;0.55;;
71773;SDS011;59607;52.130;5.430;2023-02-28T15:45:47;2.30;;;0.65;;
71773;SDS011;59607;52.130;5.430;2023-02-28T15:48:27;1.50;;;0.50;;
71773;SDS011;59607;52.130;5.430;2023-02-28T15:50:56;4.93;;;0.57;;
71773;SDS011;59607;52.130;5.430;2023-02-28T15:53:32;1.40;;;0.50;;
71773;SDS011;59607;52.130;5.430;2023-02-28T15:58:56;1.00;;;0.50;;
71773;SDS011;59607;52.130;5.430;2023-02-28T16:01:37;1.43;;;0.50;;
71773;SDS011;59607;52.130;5.430;2023-02-28T16:04:15;1.83;;;0.55;;
71773;SDS011;59607;52.130;5.430;2023-02-28T16:06:46;1.27;;;0.70;;
71773;SDS011;59607;52.130;5.430;2023-02-28T16:09:26;1.45;;;0.77;;
71773;SDS011;59607;52.130;5.430;2023-02-28T16:11:59;0.95;;;0.47;;
71773;SDS011;59607;52.130;5.430;2023-02-28T16:14:29;1.63;;;0.53;;
71773;SDS011;59607;52.130;5.430;2023-02-28T16:17:04;1.50;;;0.63;;
71773;SDS011;59607;52.130;5.430;2023-02-28T16:19:37;1.02;;;0.50;;
71773;SDS011;59607;52.130;5.430;2023-02-28T16:22:03;1.23;;;0.60;;
71773;SDS011;59607;52.130;5.430;2023-02-28T16:24:30;1.27;;;0.52;;
71773;SDS011;59607;52.130;5.430;2023-02-28T16:26:56;0.90;;;0.53;;
71773;SDS011;59607;52.130;5.430;2023-02-28T16:29:33;1.38;;;0.70;;
71773;SDS011;59607;52.130;5.430;2023-02-28T16:32:06;1.55;;;0.50;;
71773;SDS011;59607;52.130;5.430;2023-02-28T16:34:35;1.70;;;0.70;;
71773;SDS011;59607;52.130;5.430;2023-02-28T16:37:01;1.13;;;0.68;;
71773;SDS011;59607;52.130;5.430;2023-02-28T16:39:44;1.83;;;0.60;;
71773;SDS011;59607;52.130;5.430;2023-02-28T16:42:22;1.55;;;0.68;;
71773;SDS011;59607;52.130;5.430;2023-02-28T16:44:58;1.55;;;0.65;;
71773;SDS011;59607;52.130;5.430;2023-02-28T16:52:56;2.20;;;0.50;;
71773;SDS011;59607;52.130;5.430;2023-02-28T16:55:28;1.55;;;0.50;;
71773;SDS011;59607;52.130;5.430;2023-02-28T16:57:56;2.67;;;0.90;;
71773;SDS011;59607;52.130;5.430;2023-02-28T17:00:40;1.65;;;0.65;;
71773;SDS011;59607;52.130;5.430;2023-02-28T17:32:44;2.08;;;1.05;;
71773;SDS011;59607;52.130;5.430;2023-02-28T17:35:11;2.05;;;1.00;;
71773;SDS011;59607;52.130;5.430;2023-02-28T17:37:45;4.20;;;1.17;;
71773;SDS011;59607;52.130;5.430;2023-02-28T17:42:55;2.63;;;1.35;;
71773;SDS011;59607;52.130;5.430;2023-02-28T17:45:23;5.65;;;1.67;;
71773;SDS011;59607;52.130;5.430;2023-02-28T17:47:56;3.75;;;1.77;;
71773;SDS011;59607;52.130;5.430;2023-02-28T17:50:23;4.17;;;1.50;;
71773;SDS011;59607;52.130;5.430;2023-02-28T17:52:52;3.45;;;1.85;;
71773;SDS011;59607;52.130;5.430;2023-02-28T17:55:20;3.90;;;1.50;;
71773;SDS011;59607;52.130;5.430;2023-02-28T17:57:46;3.35;;;1.35;;
71773;SDS011;59607;52.130;5.430;2023-02-28T18:00:22;3.85;;;1.27;;
71773;SDS011;59607;52.130;5.430;2023-02-28T18:02:50;2.50;;;1.77;;
71773;SDS011;59607;52.130;5.430;2023-02-28T18:05:20;2.72;;;1.58;;
71773;SDS011;59607;52.130;5.430;2023-02-28T18:07:46;2.67;;;1.80;;
71773;SDS011;59607;52.130;5.430;2023-02-28T18:10:17;3.13;;;2.33;;
71773;SDS011;59607;52.130;5.430;2023-02-28T18:12:53;5.95;;;3.20;;
71773;SDS011;59607;52.130;5.430;2023-02-28T18:15:21;2.93;;;2.40;;
71773;SDS011;59607;52.130;5.430;2023-02-28T18:17:52;2.75;;;2.03;;
71773;SDS011;59607;52.130;5.430;2023-02-28T18:20:18;4.40;;;2.03;;
71773;SDS011;59607;52.130;5.430;2023-02-28T18:22:51;3.03;;;2.08;;
71773;SDS011;59607;52.130;5.430;2023-02-28T18:25:20;3.25;;;2.40;;
71773;SDS011;59607;52.130;5.430;2023-02-28T18:27:50;3.43;;;1.63;;
71773;SDS011;59607;52.130;5.430;2023-02-28T18:30:29;2.03;;;1.77;;
71773;SDS011;59607;52.130;5.430;2023-02-28T18:33:03;2.45;;;1.92;;
71773;SDS011;59607;52.130;5.430;2023-02-28T18:35:30;3.42;;;1.65;;
71773;SDS011;59607;52.130;5.430;2023-02-28T18:38:17;2.47;;;2.20;;